sensor_id;sensor_type;location;lat;lon;timestamp;P1;durP1;ratioP1;P2;durP2;ratioP2
53881;SDS011;39794;55.782;37.452;2023-01-24T00:01:23;13.68;;;6.80;;
53881;SDS011;39794;55.782;37.452;2023-01-24T00:03:53;15.27;;;6.13;;
53881;SDS011;39794;55.782;37.452;2023-01-24T00:06:21;12.88;;;5.53;;
53881;SDS011;39794;55.782;37.452;2023-01-24T00:08:50;17.27;;;6.40;;
53881;SDS011;39794;55.782;37.452;2023-01-24T00:11:18;13.38;;;6.00;;
53881;SDS011;39794;55.782;37.452;2023-01-24T00:13:47;13.23;;;6.30;;
53881;SDS011;39794;55.782;37.452;2023-01-24T00:16:17;17.45;;;6.60;;
53881;SDS011;39794;55.782;37.452;2023-01-24T00:18:47;12.48;;;6.20;;
53881;SDS011;39794;55.782;37.452;2023-01-24T00:21:18;16.83;;;6.50;;
53881;SDS011;39794;55.782;37.452;2023-01-24T00:23:53;17.00;;;7.07;;
53881;SDS011;39794;55.782;37.452;2023-01-24T00:26:22;13.93;;;6.47;;
53881;SDS011;39794;55.782;37.452;2023-01-24T00:28:51;12.25;;;6.35;;
53881;SDS011;39794;55.782;37.452;2023-01-24T00:31:22;14.00;;;6.57;;
53881;SDS011;39794;55.782;37.452;2023-01-24T00:33:53;11.05;;;6.25;;
53881;SDS011;39794;55.782;37.452;2023-01-24T00:36:23;13.98;;;6.70;;
53881;SDS011;39794;55.782;37.452;2023-01-24T00:38:52;13.93;;;5.95;;
53881;SDS011;39794;55.782;37.452;2023-01-24T00:41:24;15.73;;;6.20;;
53881;SDS011;39794;55.782;37.452;2023-01-24T00:43:53;15.30;;;5.53;;
53881;SDS011;39794;55.782;37.452;2023-01-24T00:46:22;18.35;;;6.45;;
53881;SDS011;39794;55.782;37.452;2023-01-24T00:48:50;12.18;;;6.00;;
53881;SDS011;39794;55.782;37.452;2023-01-24T00:51:18;15.13;;;6.13;;
53881;SDS011;39794;55.782;37.452;2023-01-24T00:53:48;15.70;;;6.18;;
53881;SDS011;39794;55.782;37.452;2023-01-24T00:56:19;11.63;;;5.45;;
53881;SDS011;39794;55.782;37.452;2023-01-24T00:58:50;11.90;;;6.40;;
53881;SDS011;39794;55.782;37.452;2023-01-24T01:01:19;11.63;;;5.68;;
53881;SDS011;39794;55.782;37.452;2023-01-24T01:03:49;10.13;;;5.53;;
53881;SDS011;39794;55.782;37.452;2023-01-24T01:06:17;12.73;;;6.00;;
53881;SDS011;39794;55.782;37.452;2023-01-24T01:08:46;11.80;;;5.65;;
53881;SDS011;39794;55.782;37.452;2023-01-24T01:11:16;12.13;;;5.50;;
53881;SDS011;39794;55.782;37.452;2023-01-24T01:13:46;13.13;;;5.55;;
53881;SDS011;39794;55.782;37.452;2023-01-24T01:16:17;10.13;;;5.03;;
53881;SDS011;39794;55.782;37.452;2023-01-24T01:18:47;12.18;;;5.80;;
53881;SDS011;39794;55.782;37.452;2023-01-24T01:21:16;18.50;;;5.18;;
53881;SDS011;39794;55.782;37.452;2023-01-24T01:23:46;11.40;;;5.00;;
53881;SDS011;39794;55.782;37.452;2023-01-24T01:26:19;13.30;;;5.55;;
53881;SDS011;39794;55.782;37.452;2023-01-24T01:28:48;12.30;;;5.50;;
53881;SDS011;39794;55.782;37.452;2023-01-24T01:31:18;10.63;;;5.30;;
53881;SDS011;39794;55.782;37.452;2023-01-24T01:33:46;19.75;;;9.02;;
53881;SDS011;39794;55.782;37.452;2023-01-24T01:36:15;13.52;;;5.93;;
53881;SDS011;39794;55.782;37.452;2023-01-24T01:38:43;11.32;;;5.70;;
53881;SDS011;39794;55.782;37.452;2023-01-24T01:41:13;9.88;;;5.03;;
53881;SDS011;39794;55.782;37.452;2023-01-24T01:43:43;9.85;;;5.35;;
53881;SDS011;39794;55.782;37.452;2023-01-24T01:46:26;10.75;;;5.22;;
53881;SDS011;39794;55.782;37.452;2023-01-24T01:48:58;10.38;;;5.25;;
53881;SDS011;39794;55.782;37.452;2023-01-24T01:51:30;8.98;;;5.18;;
53881;SDS011;39794;55.782;37.452;2023-01-24T01:54:05;13.60;;;5.05;;
53881;SDS011;39794;55.782;37.452;2023-01-24T01:56:36;11.65;;;4.72;;
53881;SDS011;39794;55.782;37.452;2023-01-24T01:59:11;9.82;;;5.03;;
53881;SDS011;39794;55.782;37.452;2023-01-24T02:01:41;9.18;;;4.85;;
53881;SDS011;39794;55.782;37.452;2023-01-24T02:04:11;8.70;;;4.93;;
53881;SDS011;39794;55.782;37.452;2023-01-24T02:06:52;13.95;;;4.60;;
53881;SDS011;39794;55.782;37.452;2023-01-24T02:09:23;10.43;;;5.00;;
53881;SDS011;39794;55.782;37.452;2023-01-24T02:11:56;12.07;;;5.25;;
53881;SDS011;39794;55.782;37.452;2023-01-24T02:14:30;10.45;;;4.63;;
53881;SDS011;39794;55.782;37.452;2023-01-24T02:17:17;11.77;;;5.32;;
53881;SDS011;39794;55.782;37.452;2023-01-24T02:19:50;10.73;;;4.40;;
53881;SDS011;39794;55.782;37.452;2023-01-24T02:22:28;9.70;;;4.75;;
53881;SDS011;39794;55.782;37.452;2023-01-24T02:25:06;9.52;;;4.22;;
53881;SDS011;39794;55.782;37.452;2023-01-24T02:27:40;7.97;;;4.40;;
53881;SDS011;39794;55.782;37.452;2023-01-24T02:30:08;8.45;;;4.55;;
53881;SDS011;39794;55.782;37.452;2023-01-24T02:32:38;9.93;;;4.72;;
53881;SDS011;39794;55.782;37.452;2023-01-24T02:35:19;10.10;;;5.28;;
53881;SDS011;39794;55.782;37.452;2023-01-24T02:37:50;9.88;;;4.38;;
53881;SDS011;39794;55.782;37.452;2023-01-24T02:40:18;8.95;;;4.70;;
53881;SDS011;39794;55.782;37.452;2023-01-24T02:42:48;9.85;;;4.20;;
53881;SDS011;39794;55.782;37.452;2023-01-24T02:45:18;11.23;;;4.68;;
53881;SDS011;39794;55.782;37.452;2023-01-24T02:47:50;8.15;;;4.15;;
53881;SDS011;39794;55.782;37.452;2023-01-24T02:50:21;8.38;;;3.95;;
53881;SDS011;39794;55.782;37.452;2023-01-24T02:52:53;9.45;;;4.40;;
53881;SDS011;39794;55.782;37.452;2023-01-24T02:55:39;10.15;;;4.70;;
53881;SDS011;39794;55.782;37.452;2023-01-24T02:58:24;9.07;;;4.28;;
53881;SDS011;39794;55.782;37.452;2023-01-24T03:00:56;6.88;;;4.07;;
53881;SDS011;39794;55.782;37.452;2023-01-24T03:03:25;7.03;;;4.47;;
53881;SDS011;39794;55.782;37.452;2023-01-24T03:05:54;8.85;;;4.00;;
53881;SDS011;39794;55.782;37.452;2023-01-24T03:08:34;8.27;;;4.18;;
53881;SDS011;39794;55.782;37.452;2023-01-24T03:11:10;7.85;;;4.15;;
53881;SDS011;39794;55.782;37.452;2023-01-24T03:13:43;5.78;;;3.60;;
53881;SDS011;39794;55.782;37.452;2023-01-24T03:16:29;8.15;;;4.07;;
53881;SDS011;39794;55.782;37.452;2023-01-24T03:19:15;7.95;;;3.88;;
53881;SDS011;39794;55.782;37.452;2023-01-24T03:22:02;7.78;;;3.85;;
53881;SDS011;39794;55.782;37.452;2023-01-24T03:24:48;8.52;;;4.03;;
53881;SDS011;39794;55.782;37.452;2023-01-24T03:27:34;6.68;;;3.72;;
53881;SDS011;39794;55.782;37.452;2023-01-24T03:30:27;7.82;;;4.07;;
53881;SDS011;39794;55.782;37.452;2023-01-24T03:33:14;8.88;;;3.70;;
53881;SDS011;39794;55.782;37.452;2023-01-24T03:36:00;7.85;;;3.65;;
53881;SDS011;39794;55.782;37.452;2023-01-24T03:41:22;6.78;;;3.33;;
53881;SDS011;39794;55.782;37.452;2023-01-24T03:43:50;6.25;;;3.55;;
53881;SDS011;39794;55.782;37.452;2023-01-24T03:46:20;7.35;;;3.90;;
53881;SDS011;39794;55.782;37.452;2023-01-24T03:48:52;7.53;;;3.92;;
53881;SDS011;39794;55.782;37.452;2023-01-24T03:51:28;8.38;;;3.85;;
53881;SDS011;39794;55.782;37.452;2023-01-24T03:54:14;6.70;;;3.92;;
53881;SDS011;39794;55.782;37.452;2023-01-24T03:57:02;7.53;;;3.38;;
53881;SDS011;39794;55.782;37.452;2023-01-24T03:59:30;7.63;;;3.95;;
53881;SDS011;39794;55.782;37.452;2023-01-24T04:02:00;7.60;;;3.65;;
53881;SDS011;39794;55.782;37.452;2023-01-24T04:04:33;8.02;;;3.63;;
53881;SDS011;39794;55.782;37.452;2023-01-24T04:07:16;10.57;;;3.63;;
53881;SDS011;39794;55.782;37.452;2023-01-24T04:09:56;7.05;;;3.35;;
53881;SDS011;39794;55.782;37.452;2023-01-24T04:12:28;9.55;;;3.50;;
53881;SDS011;39794;55.782;37.452;2023-01-24T04:14:56;9.18;;;3.42;;
53881;SDS011;39794;55.782;37.452;2023-01-24T04:17:27;6.70;;;3.42;;
53881;SDS011;39794;55.782;37.452;2023-01-24T04:19:56;9.65;;;3.33;;
53881;SDS011;39794;55.782;37.452;2023-01-24T04:22:25;8.80;;;4.43;;
53881;SDS011;39794;55.782;37.452;2023-01-24T04:24:56;7.03;;;3.47;;
53881;SDS011;39794;55.782;37.452;2023-01-24T04:27:44;6.80;;;3.90;;
53881;SDS011;39794;55.782;37.452;2023-01-24T04:30:19;6.85;;;3.85;;
53881;SDS011;39794;55.782;37.452;2023-01-24T04:32:51;7.47;;;3.47;;
53881;SDS011;39794;55.782;37.452;2023-01-24T04:35:24;8.93;;;3.83;;
53881;SDS011;39794;55.782;37.452;2023-01-24T04:37:58;7.07;;;3.85;;
53881;SDS011;39794;55.782;37.452;2023-01-24T04:40:57;6.50;;;3.63;;
53881;SDS011;39794;55.782;37.452;2023-01-24T04:43:30;6.07;;;3.55;;
53881;SDS011;39794;55.782;37.452;2023-01-24T04:46:01;7.38;;;4.05;;
53881;SDS011;39794;55.782;37.452;2023-01-24T04:48:47;21.92;;;10.50;;
53881;SDS011;39794;55.782;37.452;2023-01-24T04:51:16;8.05;;;3.70;;
53881;SDS011;39794;55.782;37.452;2023-01-24T04:53:45;7.32;;;3.95;;
53881;SDS011;39794;55.782;37.452;2023-01-24T04:56:18;7.95;;;3.50;;
53881;SDS011;39794;55.782;37.452;2023-01-24T04:58:48;6.47;;;3.72;;
53881;SDS011;39794;55.782;37.452;2023-01-24T05:01:16;6.22;;;3.55;;
53881;SDS011;39794;55.782;37.452;2023-01-24T05:03:53;8.10;;;3.92;;
53881;SDS011;39794;55.782;37.452;2023-01-24T05:06:26;6.65;;;3.55;;
53881;SDS011;39794;55.782;37.452;2023-01-24T05:08:56;6.72;;;3.60;;
53881;SDS011;39794;55.782;37.452;2023-01-24T05:11:34;8.20;;;3.65;;
53881;SDS011;39794;55.782;37.452;2023-01-24T05:14:05;6.95;;;3.47;;
53881;SDS011;39794;55.782;37.452;2023-01-24T05:16:36;9.65;;;3.72;;
53881;SDS011;39794;55.782;37.452;2023-01-24T05:19:05;5.60;;;3.60;;
53881;SDS011;39794;55.782;37.452;2023-01-24T05:21:34;5.80;;;3.33;;
53881;SDS011;39794;55.782;37.452;2023-01-24T05:24:03;8.15;;;4.38;;
53881;SDS011;39794;55.782;37.452;2023-01-24T05:26:33;6.22;;;3.30;;
53881;SDS011;39794;55.782;37.452;2023-01-24T05:29:01;5.60;;;3.38;;
53881;SDS011;39794;55.782;37.452;2023-01-24T05:31:31;8.70;;;4.10;;
53881;SDS011;39794;55.782;37.452;2023-01-24T05:34:00;6.38;;;3.47;;
53881;SDS011;39794;55.782;37.452;2023-01-24T05:36:30;8.07;;;3.72;;
53881;SDS011;39794;55.782;37.452;2023-01-24T05:39:00;6.15;;;3.90;;
53881;SDS011;39794;55.782;37.452;2023-01-24T05:41:31;7.03;;;3.72;;
53881;SDS011;39794;55.782;37.452;2023-01-24T05:44:00;7.18;;;3.60;;
53881;SDS011;39794;55.782;37.452;2023-01-24T05:46:40;7.10;;;3.95;;
53881;SDS011;39794;55.782;37.452;2023-01-24T05:49:17;5.78;;;3.88;;
53881;SDS011;39794;55.782;37.452;2023-01-24T05:51:47;5.70;;;3.40;;
53881;SDS011;39794;55.782;37.452;2023-01-24T05:54:28;7.68;;;3.67;;
53881;SDS011;39794;55.782;37.452;2023-01-24T05:57:02;8.55;;;3.88;;
53881;SDS011;39794;55.782;37.452;2023-01-24T05:59:51;10.18;;;3.97;;
53881;SDS011;39794;55.782;37.452;2023-01-24T06:02:23;6.90;;;3.70;;
53881;SDS011;39794;55.782;37.452;2023-01-24T06:04:54;9.25;;;3.50;;
53881;SDS011;39794;55.782;37.452;2023-01-24T06:07:24;5.82;;;3.78;;
53881;SDS011;39794;55.782;37.452;2023-01-24T06:09:52;9.32;;;3.88;;
53881;SDS011;39794;55.782;37.452;2023-01-24T06:12:29;7.63;;;3.53;;
53881;SDS011;39794;55.782;37.452;2023-01-24T06:14:57;9.25;;;3.88;;
53881;SDS011;39794;55.782;37.452;2023-01-24T06:17:33;5.60;;;3.30;;
53881;SDS011;39794;55.782;37.452;2023-01-24T06:20:01;6.38;;;3.67;;
53881;SDS011;39794;55.782;37.452;2023-01-24T06:22:36;7.03;;;3.75;;
53881;SDS011;39794;55.782;37.452;2023-01-24T06:25:11;8.15;;;3.67;;
53881;SDS011;39794;55.782;37.452;2023-01-24T06:27:46;7.30;;;3.70;;
53881;SDS011;39794;55.782;37.452;2023-01-24T06:30:15;7.22;;;3.83;;
53881;SDS011;39794;55.782;37.452;2023-01-24T06:32:56;6.45;;;3.40;;
53881;SDS011;39794;55.782;37.452;2023-01-24T06:35:36;11.07;;;3.90;;
53881;SDS011;39794;55.782;37.452;2023-01-24T06:38:14;6.63;;;4.22;;
53881;SDS011;39794;55.782;37.452;2023-01-24T06:40:46;8.20;;;4.32;;
53881;SDS011;39794;55.782;37.452;2023-01-24T06:43:17;7.20;;;3.95;;
53881;SDS011;39794;55.782;37.452;2023-01-24T06:45:48;11.13;;;4.50;;
53881;SDS011;39794;55.782;37.452;2023-01-24T06:48:18;5.88;;;3.60;;
53881;SDS011;39794;55.782;37.452;2023-01-24T06:50:47;6.15;;;3.72;;
53881;SDS011;39794;55.782;37.452;2023-01-24T06:53:16;7.50;;;3.42;;
53881;SDS011;39794;55.782;37.452;2023-01-24T06:55:44;6.00;;;3.65;;
53881;SDS011;39794;55.782;37.452;2023-01-24T06:58:13;6.47;;;3.88;;
53881;SDS011;39794;55.782;37.452;2023-01-24T07:00:41;8.95;;;3.95;;
53881;SDS011;39794;55.782;37.452;2023-01-24T07:03:12;5.97;;;3.92;;
53881;SDS011;39794;55.782;37.452;2023-01-24T07:05:42;7.43;;;3.72;;
53881;SDS011;39794;55.782;37.452;2023-01-24T07:08:10;6.80;;;3.97;;
53881;SDS011;39794;55.782;37.452;2023-01-24T07:10:40;6.22;;;3.72;;
53881;SDS011;39794;55.782;37.452;2023-01-24T07:13:09;9.75;;;3.70;;
53881;SDS011;39794;55.782;37.452;2023-01-24T07:15:37;5.93;;;3.47;;
53881;SDS011;39794;55.782;37.452;2023-01-24T07:18:06;9.48;;;3.85;;
53881;SDS011;39794;55.782;37.452;2023-01-24T07:20:37;10.63;;;4.05;;
53881;SDS011;39794;55.782;37.452;2023-01-24T07:23:13;7.25;;;3.55;;
53881;SDS011;39794;55.782;37.452;2023-01-24T07:25:48;7.60;;;3.65;;
53881;SDS011;39794;55.782;37.452;2023-01-24T07:28:17;6.07;;;3.50;;
53881;SDS011;39794;55.782;37.452;2023-01-24T07:30:47;8.32;;;3.80;;
53881;SDS011;39794;55.782;37.452;2023-01-24T07:33:16;7.20;;;4.25;;
53881;SDS011;39794;55.782;37.452;2023-01-24T07:35:45;8.50;;;3.80;;
53881;SDS011;39794;55.782;37.452;2023-01-24T07:38:18;8.95;;;4.35;;
53881;SDS011;39794;55.782;37.452;2023-01-24T07:40:46;7.43;;;4.07;;
53881;SDS011;39794;55.782;37.452;2023-01-24T07:43:18;6.00;;;3.90;;
53881;SDS011;39794;55.782;37.452;2023-01-24T07:45:47;5.90;;;4.07;;
53881;SDS011;39794;55.782;37.452;2023-01-24T07:48:18;9.40;;;4.68;;
53881;SDS011;39794;55.782;37.452;2023-01-24T07:50:47;7.00;;;3.97;;
53881;SDS011;39794;55.782;37.452;2023-01-24T07:53:15;10.18;;;4.50;;
53881;SDS011;39794;55.782;37.452;2023-01-24T07:55:45;9.40;;;4.68;;
53881;SDS011;39794;55.782;37.452;2023-01-24T07:58:28;9.67;;;3.73;;
53881;SDS011;39794;55.782;37.452;2023-01-24T08:00:59;11.90;;;4.80;;
53881;SDS011;39794;55.782;37.452;2023-01-24T08:03:28;6.65;;;3.75;;
53881;SDS011;39794;55.782;37.452;2023-01-24T08:05:59;7.07;;;4.07;;
53881;SDS011;39794;55.782;37.452;2023-01-24T08:08:27;8.57;;;4.07;;
53881;SDS011;39794;55.782;37.452;2023-01-24T08:10:57;6.32;;;3.40;;
53881;SDS011;39794;55.782;37.452;2023-01-24T08:13:28;6.80;;;3.50;;
53881;SDS011;39794;55.782;37.452;2023-01-24T08:15:59;5.00;;;3.47;;
53881;SDS011;39794;55.782;37.452;2023-01-24T08:18:28;7.60;;;4.15;;
53881;SDS011;39794;55.782;37.452;2023-01-24T08:20:57;7.35;;;4.03;;
53881;SDS011;39794;55.782;37.452;2023-01-24T08:23:27;7.45;;;4.30;;
53881;SDS011;39794;55.782;37.452;2023-01-24T08:25:58;5.68;;;3.50;;
53881;SDS011;39794;55.782;37.452;2023-01-24T08:28:29;6.47;;;4.17;;
53881;SDS011;39794;55.782;37.452;2023-01-24T08:30:59;8.70;;;3.35;;
53881;SDS011;39794;55.782;37.452;2023-01-24T08:33:28;8.98;;;3.80;;
53881;SDS011;39794;55.782;37.452;2023-01-24T08:35:59;9.52;;;4.10;;
53881;SDS011;39794;55.782;37.452;2023-01-24T08:38:29;6.45;;;3.95;;
53881;SDS011;39794;55.782;37.452;2023-01-24T08:40:59;6.47;;;3.85;;
53881;SDS011;39794;55.782;37.452;2023-01-24T08:43:35;6.47;;;4.07;;
53881;SDS011;39794;55.782;37.452;2023-01-24T08:46:04;8.80;;;3.78;;
53881;SDS011;39794;55.782;37.452;2023-01-24T08:48:32;6.85;;;3.83;;
53881;SDS011;39794;55.782;37.452;2023-01-24T08:51:04;6.07;;;3.45;;
53881;SDS011;39794;55.782;37.452;2023-01-24T08:53:33;10.40;;;4.00;;
53881;SDS011;39794;55.782;37.452;2023-01-24T08:56:03;6.65;;;3.80;;
53881;SDS011;39794;55.782;37.452;2023-01-24T08:58:34;4.97;;;3.10;;
53881;SDS011;39794;55.782;37.452;2023-01-24T09:01:05;6.38;;;3.33;;
53881;SDS011;39794;55.782;37.452;2023-01-24T09:03:36;7.20;;;3.55;;
53881;SDS011;39794;55.782;37.452;2023-01-24T09:06:07;7.53;;;3.42;;
53881;SDS011;39794;55.782;37.452;2023-01-24T09:08:36;4.63;;;3.38;;
53881;SDS011;39794;55.782;37.452;2023-01-24T09:11:06;5.57;;;3.38;;
53881;SDS011;39794;55.782;37.452;2023-01-24T09:13:35;7.70;;;3.50;;
53881;SDS011;39794;55.782;37.452;2023-01-24T09:16:06;6.53;;;4.00;;
53881;SDS011;39794;55.782;37.452;2023-01-24T09:18:36;5.32;;;3.22;;
53881;SDS011;39794;55.782;37.452;2023-01-24T09:21:05;6.60;;;3.70;;
53881;SDS011;39794;55.782;37.452;2023-01-24T09:23:35;5.93;;;3.72;;
53881;SDS011;39794;55.782;37.452;2023-01-24T09:26:05;5.45;;;3.05;;
53881;SDS011;39794;55.782;37.452;2023-01-24T09:28:34;6.10;;;3.58;;
53881;SDS011;39794;55.782;37.452;2023-01-24T09:31:06;4.95;;;3.15;;
53881;SDS011;39794;55.782;37.452;2023-01-24T09:33:35;5.70;;;3.63;;
53881;SDS011;39794;55.782;37.452;2023-01-24T09:36:15;4.85;;;3.38;;
53881;SDS011;39794;55.782;37.452;2023-01-24T09:38:44;5.55;;;3.05;;
53881;SDS011;39794;55.782;37.452;2023-01-24T09:44:05;8.37;;;4.37;;
53881;SDS011;39794;55.782;37.452;2023-01-24T09:49:11;6.30;;;3.30;;
53881;SDS011;39794;55.782;37.452;2023-01-24T09:51:45;7.65;;;3.55;;
53881;SDS011;39794;55.782;37.452;2023-01-24T09:54:23;7.07;;;3.40;;
53881;SDS011;39794;55.782;37.452;2023-01-24T09:56:59;6.40;;;3.72;;
53881;SDS011;39794;55.782;37.452;2023-01-24T09:59:31;8.18;;;3.50;;
53881;SDS011;39794;55.782;37.452;2023-01-24T10:02:05;5.13;;;3.35;;
53881;SDS011;39794;55.782;37.452;2023-01-24T10:04:52;5.38;;;3.25;;
53881;SDS011;39794;55.782;37.452;2023-01-24T10:07:28;5.57;;;3.60;;
53881;SDS011;39794;55.782;37.452;2023-01-24T10:10:28;6.63;;;3.28;;
53881;SDS011;39794;55.782;37.452;2023-01-24T10:13:21;9.07;;;4.03;;
53881;SDS011;39794;55.782;37.452;2023-01-24T10:16:01;7.43;;;3.47;;
53881;SDS011;39794;55.782;37.452;2023-01-24T10:18:39;5.15;;;3.38;;
53881;SDS011;39794;55.782;37.452;2023-01-24T10:21:34;5.60;;;3.60;;
53881;SDS011;39794;55.782;37.452;2023-01-24T10:24:09;7.05;;;3.83;;
53881;SDS011;39794;55.782;37.452;2023-01-24T10:26:41;7.20;;;3.25;;
53881;SDS011;39794;55.782;37.452;2023-01-24T10:29:14;7.20;;;3.88;;
53881;SDS011;39794;55.782;37.452;2023-01-24T10:31:45;14.35;;;4.45;;
53881;SDS011;39794;55.782;37.452;2023-01-24T10:34:23;6.70;;;3.90;;
53881;SDS011;39794;55.782;37.452;2023-01-24T10:36:55;6.43;;;4.32;;
53881;SDS011;39794;55.782;37.452;2023-01-24T10:39:29;12.10;;;4.80;;
53881;SDS011;39794;55.782;37.452;2023-01-24T10:41:57;13.25;;;4.63;;
53881;SDS011;39794;55.782;37.452;2023-01-24T10:44:27;10.00;;;4.45;;
53881;SDS011;39794;55.782;37.452;2023-01-24T10:50:07;11.50;;;4.38;;
53881;SDS011;39794;55.782;37.452;2023-01-24T10:52:40;8.85;;;4.10;;
53881;SDS011;39794;55.782;37.452;2023-01-24T10:55:25;13.02;;;4.68;;
53881;SDS011;39794;55.782;37.452;2023-01-24T10:58:01;7.25;;;4.00;;
53881;SDS011;39794;55.782;37.452;2023-01-24T11:00:34;8.85;;;3.92;;
53881;SDS011;39794;55.782;37.452;2023-01-24T11:03:04;9.10;;;3.75;;
53881;SDS011;39794;55.782;37.452;2023-01-24T11:05:37;7.88;;;3.97;;
53881;SDS011;39794;55.782;37.452;2023-01-24T11:08:15;13.95;;;4.13;;
53881;SDS011;39794;55.782;37.452;2023-01-24T11:10:46;6.55;;;3.78;;
53881;SDS011;39794;55.782;37.452;2023-01-24T11:13:36;11.70;;;4.53;;
53881;SDS011;39794;55.782;37.452;2023-01-24T11:16:18;9.38;;;4.53;;
53881;SDS011;39794;55.782;37.452;2023-01-24T11:18:50;26.67;;;5.30;;
53881;SDS011;39794;55.782;37.452;2023-01-24T11:21:20;9.40;;;4.40;;
53881;SDS011;39794;55.782;37.452;2023-01-24T11:23:58;11.50;;;4.07;;
53881;SDS011;39794;55.782;37.452;2023-01-24T11:29:15;9.52;;;3.67;;
53881;SDS011;39794;55.782;37.452;2023-01-24T11:31:46;8.88;;;3.40;;
53881;SDS011;39794;55.782;37.452;2023-01-24T11:34:22;6.03;;;3.63;;
53881;SDS011;39794;55.782;37.452;2023-01-24T11:37:01;7.65;;;3.40;;
53881;SDS011;39794;55.782;37.452;2023-01-24T11:39:35;5.97;;;3.67;;
53881;SDS011;39794;55.782;37.452;2023-01-24T11:42:09;14.98;;;4.35;;
53881;SDS011;39794;55.782;37.452;2023-01-24T11:44:54;8.55;;;3.60;;
53881;SDS011;39794;55.782;37.452;2023-01-24T11:47:32;6.38;;;3.55;;
53881;SDS011;39794;55.782;37.452;2023-01-24T11:50:11;10.27;;;3.60;;
53881;SDS011;39794;55.782;37.452;2023-01-24T11:52:58;14.57;;;4.47;;
53881;SDS011;39794;55.782;37.452;2023-01-24T11:55:37;8.00;;;3.35;;
53881;SDS011;39794;55.782;37.452;2023-01-24T11:58:15;21.20;;;4.10;;
53881;SDS011;39794;55.782;37.452;2023-01-24T12:00:50;8.73;;;3.70;;
53881;SDS011;39794;55.782;37.452;2023-01-24T12:06:30;6.60;;;3.45;;
53881;SDS011;39794;55.782;37.452;2023-01-24T12:09:08;6.22;;;3.28;;
53881;SDS011;39794;55.782;37.452;2023-01-24T12:11:43;7.07;;;2.80;;
53881;SDS011;39794;55.782;37.452;2023-01-24T12:14:25;14.38;;;4.43;;
53881;SDS011;39794;55.782;37.452;2023-01-24T12:20:06;8.35;;;3.60;;
53881;SDS011;39794;55.782;37.452;2023-01-24T12:23:07;7.45;;;3.78;;
53881;SDS011;39794;55.782;37.452;2023-01-24T12:25:39;5.70;;;2.85;;
53881;SDS011;39794;55.782;37.452;2023-01-24T12:28:11;10.98;;;5.57;;
53881;SDS011;39794;55.782;37.452;2023-01-24T12:30:47;10.43;;;3.10;;
53881;SDS011;39794;55.782;37.452;2023-01-24T12:33:21;4.70;;;3.20;;
53881;SDS011;39794;55.782;37.452;2023-01-24T12:35:55;5.25;;;3.25;;
53881;SDS011;39794;55.782;37.452;2023-01-24T12:38:29;5.57;;;3.08;;
53881;SDS011;39794;55.782;37.452;2023-01-24T12:43:31;5.60;;;3.22;;
53881;SDS011;39794;55.782;37.452;2023-01-24T12:48:37;4.35;;;2.72;;
53881;SDS011;39794;55.782;37.452;2023-01-24T12:51:13;4.10;;;2.58;;
53881;SDS011;39794;55.782;37.452;2023-01-24T12:53:48;3.60;;;2.53;;
53881;SDS011;39794;55.782;37.452;2023-01-24T12:56:30;3.58;;;2.50;;
53881;SDS011;39794;55.782;37.452;2023-01-24T12:59:06;4.75;;;2.50;;
53881;SDS011;39794;55.782;37.452;2023-01-24T13:04:33;3.67;;;2.38;;
53881;SDS011;39794;55.782;37.452;2023-01-24T13:07:09;4.22;;;2.53;;
53881;SDS011;39794;55.782;37.452;2023-01-24T13:09:42;4.22;;;2.67;;
53881;SDS011;39794;55.782;37.452;2023-01-24T13:12:15;4.32;;;2.80;;
53881;SDS011;39794;55.782;37.452;2023-01-24T13:14:46;3.33;;;2.40;;
53881;SDS011;39794;55.782;37.452;2023-01-24T13:17:39;6.65;;;3.00;;
53881;SDS011;39794;55.782;37.452;2023-01-24T13:23:27;5.95;;;2.65;;
53881;SDS011;39794;55.782;37.452;2023-01-24T13:26:19;4.80;;;2.70;;
53881;SDS011;39794;55.782;37.452;2023-01-24T13:28:56;5.35;;;2.75;;
53881;SDS011;39794;55.782;37.452;2023-01-24T13:31:45;3.67;;;2.50;;
53881;SDS011;39794;55.782;37.452;2023-01-24T13:34:21;4.88;;;2.90;;
53881;SDS011;39794;55.782;37.452;2023-01-24T13:36:53;4.57;;;2.30;;
53881;SDS011;39794;55.782;37.452;2023-01-24T13:39:30;4.13;;;2.53;;
53881;SDS011;39794;55.782;37.452;2023-01-24T13:42:02;4.38;;;2.85;;
53881;SDS011;39794;55.782;37.452;2023-01-24T13:44:32;5.10;;;3.08;;
53881;SDS011;39794;55.782;37.452;2023-01-24T13:47:03;4.32;;;2.72;;
53881;SDS011;39794;55.782;37.452;2023-01-24T13:52:45;7.13;;;3.42;;
53881;SDS011;39794;55.782;37.452;2023-01-24T13:58:28;5.07;;;3.00;;
53881;SDS011;39794;55.782;37.452;2023-01-24T14:00:58;5.43;;;3.17;;
53881;SDS011;39794;55.782;37.452;2023-01-24T14:03:29;6.10;;;2.97;;
53881;SDS011;39794;55.782;37.452;2023-01-24T14:09:00;5.05;;;3.10;;
53881;SDS011;39794;55.782;37.452;2023-01-24T14:11:38;5.80;;;2.97;;
53881;SDS011;39794;55.782;37.452;2023-01-24T14:14:27;6.65;;;2.72;;
53881;SDS011;39794;55.782;37.452;2023-01-24T14:19:55;5.70;;;3.20;;
53881;SDS011;39794;55.782;37.452;2023-01-24T14:22:28;6.38;;;3.30;;
53881;SDS011;39794;55.782;37.452;2023-01-24T14:25:02;7.18;;;3.13;;
53881;SDS011;39794;55.782;37.452;2023-01-24T14:27:35;4.93;;;3.35;;
53881;SDS011;39794;55.782;37.452;2023-01-24T14:30:23;7.82;;;3.53;;
53881;SDS011;39794;55.782;37.452;2023-01-24T14:33:00;5.93;;;3.63;;
53881;SDS011;39794;55.782;37.452;2023-01-24T14:35:33;5.50;;;3.63;;
53881;SDS011;39794;55.782;37.452;2023-01-24T14:38:14;6.10;;;3.58;;
53881;SDS011;39794;55.782;37.452;2023-01-24T14:40:44;4.70;;;3.17;;
53881;SDS011;39794;55.782;37.452;2023-01-24T14:43:19;6.85;;;3.78;;
53881;SDS011;39794;55.782;37.452;2023-01-24T14:45:50;5.68;;;3.88;;
53881;SDS011;39794;55.782;37.452;2023-01-24T14:48:21;7.70;;;3.60;;
53881;SDS011;39794;55.782;37.452;2023-01-24T14:51:05;5.40;;;3.33;;
53881;SDS011;39794;55.782;37.452;2023-01-24T14:53:35;7.30;;;4.20;;
53881;SDS011;39794;55.782;37.452;2023-01-24T14:56:07;6.93;;;3.63;;
53881;SDS011;39794;55.782;37.452;2023-01-24T14:58:39;6.53;;;3.87;;
53881;SDS011;39794;55.782;37.452;2023-01-24T15:01:20;6.43;;;3.58;;
53881;SDS011;39794;55.782;37.452;2023-01-24T15:03:51;8.40;;;3.97;;
53881;SDS011;39794;55.782;37.452;2023-01-24T15:06:21;7.85;;;4.30;;
53881;SDS011;39794;55.782;37.452;2023-01-24T15:08:54;6.05;;;3.40;;
53881;SDS011;39794;55.782;37.452;2023-01-24T15:11:24;7.07;;;4.00;;
53881;SDS011;39794;55.782;37.452;2023-01-24T15:13:56;5.55;;;3.72;;
53881;SDS011;39794;55.782;37.452;2023-01-24T15:16:29;5.30;;;3.55;;
53881;SDS011;39794;55.782;37.452;2023-01-24T15:19:02;6.07;;;3.90;;
53881;SDS011;39794;55.782;37.452;2023-01-24T15:21:33;5.95;;;3.92;;
53881;SDS011;39794;55.782;37.452;2023-01-24T15:24:05;6.40;;;3.63;;
53881;SDS011;39794;55.782;37.452;2023-01-24T15:26:45;7.30;;;3.55;;
53881;SDS011;39794;55.782;37.452;2023-01-24T15:32:20;6.47;;;3.95;;
53881;SDS011;39794;55.782;37.452;2023-01-24T15:38:03;9.75;;;4.22;;
53881;SDS011;39794;55.782;37.452;2023-01-24T15:40:45;5.40;;;3.65;;
53881;SDS011;39794;55.782;37.452;2023-01-24T15:43:26;6.47;;;3.40;;
53881;SDS011;39794;55.782;37.452;2023-01-24T15:46:17;6.25;;;3.35;;
53881;SDS011;39794;55.782;37.452;2023-01-24T15:49:18;10.30;;;3.97;;
53881;SDS011;39794;55.782;37.452;2023-01-24T15:52:01;5.78;;;3.33;;
53881;SDS011;39794;55.782;37.452;2023-01-24T15:54:44;6.28;;;3.95;;
53881;SDS011;39794;55.782;37.452;2023-01-24T15:57:17;6.38;;;3.80;;
53881;SDS011;39794;55.782;37.452;2023-01-24T15:59:53;8.55;;;4.35;;